sensor_id;sensor_type;location;lat;lon;timestamp;temperature;humidity
35043;DHT22;21230;51.170;17.024;2022-10-31T00:00:47;9.60;99.90
35043;DHT22;21230;51.170;17.024;2022-10-31T00:03:13;9.60;99.90
35043;DHT22;21230;51.170;17.024;2022-10-31T00:05:51;9.60;99.90
35043;DHT22;21230;51.170;17.024;2022-10-31T00:08:17;9.70;99.90
35043;DHT22;21230;51.170;17.024;2022-10-31T00:10:45;9.70;99.90
35043;DHT22;21230;51.170;17.024;2022-10-31T00:13:11;9.70;99.90
35043;DHT22;21230;51.170;17.024;2022-10-31T00:15:38;9.60;99.90
35043;DHT22;21230;51.170;17.024;2022-10-31T00:18:05;9.60;99.90
35043;DHT22;21230;51.170;17.024;2022-10-31T00:20:31;9.60;99.90
35043;DHT22;21230;51.170;17.024;2022-10-31T00:22:57;9.60;99.90
35043;DHT22;21230;51.170;17.024;2022-10-31T00:25:23;9.50;99.90
35043;DHT22;21230;51.170;17.024;2022-10-31T00:27:49;9.40;99.90
35043;DHT22;21230;51.170;17.024;2022-10-31T00:30:15;9.40;99.90
35043;DHT22;21230;51.170;17.024;2022-10-31T00:32:40;9.30;99.90
35043;DHT22;21230;51.170;17.024;2022-10-31T00:35:09;9.30;99.90
35043;DHT22;21230;51.170;17.024;2022-10-31T00:37:34;9.30;99.90
35043;DHT22;21230;51.170;17.024;2022-10-31T00:40:00;9.30;99.90
35043;DHT22;21230;51.170;17.024;2022-10-31T00:42:26;9.30;99.90
35043;DHT22;21230;51.170;17.024;2022-10-31T00:44:51;9.20;99.90
35043;DHT22;21230;51.170;17.024;2022-10-31T00:47:17;9.20;99.90
35043;DHT22;21230;51.170;17.024;2022-10-31T00:49:43;9.10;99.90
35043;DHT22;21230;51.170;17.024;2022-10-31T00:52:08;9.10;99.90
35043;DHT22;21230;51.170;17.024;2022-10-31T00:54:44;9.10;99.90
35043;DHT22;21230;51.170;17.024;2022-10-31T00:57:09;9.00;99.90
35043;DHT22;21230;51.170;17.024;2022-10-31T00:59:36;9.00;99.90
35043;DHT22;21230;51.170;17.024;2022-10-31T01:02:02;9.00;99.90
35043;DHT22;21230;51.170;17.024;2022-10-31T01:04:34;8.90;99.90
35043;DHT22;21230;51.170;17.024;2022-10-31T01:06:59;8.90;99.90
35043;DHT22;21230;51.170;17.024;2022-10-31T01:12:10;8.90;99.90
35043;DHT22;21230;51.170;17.024;2022-10-31T01:14:35;8.90;99.90
35043;DHT22;21230;51.170;17.024;2022-10-31T01:17:01;8.90;99.90
35043;DHT22;21230;51.170;17.024;2022-10-31T01:19:30;8.90;99.90
35043;DHT22;21230;51.170;17.024;2022-10-31T01:21:56;8.90;99.90
35043;DHT22;21230;51.170;17.024;2022-10-31T01:26:56;8.80;99.90
35043;DHT22;21230;51.170;17.024;2022-10-31T01:29:23;8.70;99.90
35043;DHT22;21230;51.170;17.024;2022-10-31T01:31:51;8.60;99.90
35043;DHT22;21230;51.170;17.024;2022-10-31T01:34:16;8.60;99.90
35043;DHT22;21230;51.170;17.024;2022-10-31T01:36:42;8.60;99.90
35043;DHT22;21230;51.170;17.024;2022-10-31T01:39:10;8.60;99.90
35043;DHT22;21230;51.170;17.024;2022-10-31T01:41:41;8.60;99.90
35043;DHT22;21230;51.170;17.024;2022-10-31T01:46:40;8.70;99.90
35043;DHT22;21230;51.170;17.024;2022-10-31T01:51:52;8.60;99.90
35043;DHT22;21230;51.170;17.024;2022-10-31T01:54:21;8.70;99.90
35043;DHT22;21230;51.170;17.024;2022-10-31T01:56:57;8.70;99.90
35043;DHT22;21230;51.170;17.024;2022-10-31T01:59:29;8.70;99.90
35043;DHT22;21230;51.170;17.024;2022-10-31T02:01:59;8.70;99.90
35043;DHT22;21230;51.170;17.024;2022-10-31T02:04:25;8.60;99.90
35043;DHT22;21230;51.170;17.024;2022-10-31T02:09:16;8.50;99.90
35043;DHT22;21230;51.170;17.024;2022-10-31T02:11:49;8.50;99.90
35043;DHT22;21230;51.170;17.024;2022-10-31T02:14:16;8.50;99.90
35043;DHT22;21230;51.170;17.024;2022-10-31T02:16:42;8.50;99.90
35043;DHT22;21230;51.170;17.024;2022-10-31T02:19:08;8.50;99.90
35043;DHT22;21230;51.170;17.024;2022-10-31T02:24:37;8.40;99.90
35043;DHT22;21230;51.170;17.024;2022-10-31T02:27:15;8.30;99.90
35043;DHT22;21230;51.170;17.024;2022-10-31T02:35:03;8.40;99.90
35043;DHT22;21230;51.170;17.024;2022-10-31T02:37:39;8.40;99.90
35043;DHT22;21230;51.170;17.024;2022-10-31T02:45:26;8.30;99.90
35043;DHT22;21230;51.170;17.024;2022-10-31T02:47:53;8.30;99.90
35043;DHT22;21230;51.170;17.024;2022-10-31T02:50:22;8.30;99.90
35043;DHT22;21230;51.170;17.024;2022-10-31T02:52:52;8.30;99.90
35043;DHT22;21230;51.170;17.024;2022-10-31T02:57:49;8.40;99.90
35043;DHT22;21230;51.170;17.024;2022-10-31T03:00:17;8.30;99.90
35043;DHT22;21230;51.170;17.024;2022-10-31T03:14:06;8.40;99.90
35043;DHT22;21230;51.170;17.024;2022-10-31T03:18:32;8.30;99.90
35043;DHT22;21230;51.170;17.024;2022-10-31T03:23:28;8.30;99.90
35043;DHT22;21230;51.170;17.024;2022-10-31T03:25:55;8.20;99.90
35043;DHT22;21230;51.170;17.024;2022-10-31T03:28:23;8.20;99.90
35043;DHT22;21230;51.170;17.024;2022-10-31T03:30:50;8.20;99.90
35043;DHT22;21230;51.170;17.024;2022-10-31T03:33:18;8.20;99.90
35043;DHT22;21230;51.170;17.024;2022-10-31T03:35:47;8.10;99.90
35043;DHT22;21230;51.170;17.024;2022-10-31T03:38:13;8.10;99.90
35043;DHT22;21230;51.170;17.024;2022-10-31T03:40:40;8.00;99.90
35043;DHT22;21230;51.170;17.024;2022-10-31T03:43:09;8.00;99.90
35043;DHT22;21230;51.170;17.024;2022-10-31T03:45:37;8.00;99.90
35043;DHT22;21230;51.170;17.024;2022-10-31T03:48:13;8.00;99.90
35043;DHT22;21230;51.170;17.024;2022-10-31T03:50:40;8.00;99.90
35043;DHT22;21230;51.170;17.024;2022-10-31T03:53:09;8.00;99.90
35043;DHT22;21230;51.170;17.024;2022-10-31T03:55:42;8.00;99.90
35043;DHT22;21230;51.170;17.024;2022-10-31T03:58:14;8.00;99.90
35043;DHT22;21230;51.170;17.024;2022-10-31T04:00:44;8.00;99.90
35043;DHT22;21230;51.170;17.024;2022-10-31T04:03:15;7.90;99.90
35043;DHT22;21230;51.170;17.024;2022-10-31T04:05:44;7.90;99.90
35043;DHT22;21230;51.170;17.024;2022-10-31T04:08:12;7.90;99.90
35043;DHT22;21230;51.170;17.024;2022-10-31T04:10:39;7.90;99.90
35043;DHT22;21230;51.170;17.024;2022-10-31T04:13:07;7.80;99.90
35043;DHT22;21230;51.170;17.024;2022-10-31T04:15:33;7.80;99.90
35043;DHT22;21230;51.170;17.024;2022-10-31T04:18:00;7.80;99.90
35043;DHT22;21230;51.170;17.024;2022-10-31T04:20:33;7.80;99.90
35043;DHT22;21230;51.170;17.024;2022-10-31T04:22:59;7.70;99.90
35043;DHT22;21230;51.170;17.024;2022-10-31T04:25:25;7.70;99.90
35043;DHT22;21230;51.170;17.024;2022-10-31T04:27:50;7.70;99.90
35043;DHT22;21230;51.170;17.024;2022-10-31T04:30:18;7.70;99.90
35043;DHT22;21230;51.170;17.024;2022-10-31T04:32:44;7.70;99.90
35043;DHT22;21230;51.170;17.024;2022-10-31T04:35:09;7.70;99.90
35043;DHT22;21230;51.170;17.024;2022-10-31T04:37:35;7.70;99.90
35043;DHT22;21230;51.170;17.024;2022-10-31T04:40:01;7.70;99.90
35043;DHT22;21230;51.170;17.024;2022-10-31T04:42:29;7.70;99.90
35043;DHT22;21230;51.170;17.024;2022-10-31T04:45:07;7.70;99.90
35043;DHT22;21230;51.170;17.024;2022-10-31T04:47:33;7.70;99.90
35043;DHT22;21230;51.170;17.024;2022-10-31T04:50:02;7.70;99.90
35043;DHT22;21230;51.170;17.024;2022-10-31T04:52:28;7.70;99.90
35043;DHT22;21230;51.170;17.024;2022-10-31T04:54:54;7.70;99.90
35043;DHT22;21230;51.170;17.024;2022-10-31T04:57:19;7.60;99.90
35043;DHT22;21230;51.170;17.024;2022-10-31T04:59:48;7.60;99.90
35043;DHT22;21230;51.170;17.024;2022-10-31T05:02:17;7.60;99.90
35043;DHT22;21230;51.170;17.024;2022-10-31T05:04:42;7.60;99.90
35043;DHT22;21230;51.170;17.024;2022-10-31T05:07:08;7.60;99.90
35043;DHT22;21230;51.170;17.024;2022-10-31T05:09:34;7.60;99.90
35043;DHT22;21230;51.170;17.024;2022-10-31T05:12:08;7.60;99.90
35043;DHT22;21230;51.170;17.024;2022-10-31T05:14:34;7.60;99.90
35043;DHT22;21230;51.170;17.024;2022-10-31T05:17:00;7.60;99.90
35043;DHT22;21230;51.170;17.024;2022-10-31T05:19:28;7.60;99.90
35043;DHT22;21230;51.170;17.024;2022-10-31T05:21:53;7.60;99.90
35043;DHT22;21230;51.170;17.024;2022-10-31T05:24:19;7.60;99.90
35043;DHT22;21230;51.170;17.024;2022-10-31T05:26:50;7.50;99.90
35043;DHT22;21230;51.170;17.024;2022-10-31T05:29:21;7.50;99.90
35043;DHT22;21230;51.170;17.024;2022-10-31T05:31:47;7.50;99.90
35043;DHT22;21230;51.170;17.024;2022-10-31T05:34:26;7.50;99.90
35043;DHT22;21230;51.170;17.024;2022-10-31T05:36:51;7.50;99.90
35043;DHT22;21230;51.170;17.024;2022-10-31T05:39:17;7.40;99.90
35043;DHT22;21230;51.170;17.024;2022-10-31T05:41:49;7.40;99.90
35043;DHT22;21230;51.170;17.024;2022-10-31T05:44:14;7.40;99.90
35043;DHT22;21230;51.170;17.024;2022-10-31T05:46:40;7.40;99.90
35043;DHT22;21230;51.170;17.024;2022-10-31T05:49:06;7.40;99.90
35043;DHT22;21230;51.170;17.024;2022-10-31T05:51:31;7.30;99.90
35043;DHT22;21230;51.170;17.024;2022-10-31T05:53:57;7.30;99.90
35043;DHT22;21230;51.170;17.024;2022-10-31T05:56:23;7.30;99.90
35043;DHT22;21230;51.170;17.024;2022-10-31T05:58:48;7.40;99.90
35043;DHT22;21230;51.170;17.024;2022-10-31T06:01:14;7.40;99.90
35043;DHT22;21230;51.170;17.024;2022-10-31T06:03:40;7.40;99.90
35043;DHT22;21230;51.170;17.024;2022-10-31T06:13:59;7.40;99.90
35043;DHT22;21230;51.170;17.024;2022-10-31T06:16:51;7.50;99.90
35043;DHT22;21230;51.170;17.024;2022-10-31T06:19:20;7.50;99.90
35043;DHT22;21230;51.170;17.024;2022-10-31T06:25:27;7.50;99.90
35043;DHT22;21230;51.170;17.024;2022-10-31T06:27:54;7.60;99.90
35043;DHT22;21230;51.170;17.024;2022-10-31T06:30:21;7.60;99.90
35043;DHT22;21230;51.170;17.024;2022-10-31T06:32:47;7.70;99.90
35043;DHT22;21230;51.170;17.024;2022-10-31T06:35:12;7.80;99.90
35043;DHT22;21230;51.170;17.024;2022-10-31T06:37:39;7.80;99.90
35043;DHT22;21230;51.170;17.024;2022-10-31T06:40:06;7.80;99.90
35043;DHT22;21230;51.170;17.024;2022-10-31T06:42:31;7.90;99.90
35043;DHT22;21230;51.170;17.024;2022-10-31T06:44:57;7.90;99.90
35043;DHT22;21230;51.170;17.024;2022-10-31T06:53:11;8.20;99.90
35043;DHT22;21230;51.170;17.024;2022-10-31T06:55:39;8.20;99.90
35043;DHT22;21230;51.170;17.024;2022-10-31T06:58:05;8.30;99.90
35043;DHT22;21230;51.170;17.024;2022-10-31T07:00:30;8.30;99.90
35043;DHT22;21230;51.170;17.024;2022-10-31T07:02:57;8.40;99.90
35043;DHT22;21230;51.170;17.024;2022-10-31T07:05:23;8.50;99.90
35043;DHT22;21230;51.170;17.024;2022-10-31T07:07:53;8.50;99.90
35043;DHT22;21230;51.170;17.024;2022-10-31T07:10:19;8.70;99.90
35043;DHT22;21230;51.170;17.024;2022-10-31T07:12:48;8.80;99.90
35043;DHT22;21230;51.170;17.024;2022-10-31T07:15:14;8.90;99.90
35043;DHT22;21230;51.170;17.024;2022-10-31T07:17:43;9.00;99.90
35043;DHT22;21230;51.170;17.024;2022-10-31T07:20:10;9.10;99.90
35043;DHT22;21230;51.170;17.024;2022-10-31T07:22:39;9.20;99.90
35043;DHT22;21230;51.170;17.024;2022-10-31T07:25:05;9.30;99.90
35043;DHT22;21230;51.170;17.024;2022-10-31T07:27:40;9.50;99.90
35043;DHT22;21230;51.170;17.024;2022-10-31T07:30:07;9.50;99.90
35043;DHT22;21230;51.170;17.024;2022-10-31T07:32:42;9.60;99.90
35043;DHT22;21230;51.170;17.024;2022-10-31T07:38:13;9.90;99.90
35043;DHT22;21230;51.170;17.024;2022-10-31T07:41:34;10.00;99.90
35043;DHT22;21230;51.170;17.024;2022-10-31T07:54:27;10.60;99.90
35043;DHT22;21230;51.170;17.024;2022-10-31T08:04:42;11.20;99.90
35043;DHT22;21230;51.170;17.024;2022-10-31T08:07:08;11.20;99.90
35043;DHT22;21230;51.170;17.024;2022-10-31T08:45:44;13.50;99.90
35043;DHT22;21230;51.170;17.024;2022-10-31T08:48:22;13.70;99.90
35043;DHT22;21230;51.170;17.024;2022-10-31T08:50:47;13.90;99.90
35043;DHT22;21230;51.170;17.024;2022-10-31T08:53:14;14.00;99.90
35043;DHT22;21230;51.170;17.024;2022-10-31T08:55:44;14.20;99.90
35043;DHT22;21230;51.170;17.024;2022-10-31T08:58:14;14.30;99.90
35043;DHT22;21230;51.170;17.024;2022-10-31T09:00:41;14.40;99.90
35043;DHT22;21230;51.170;17.024;2022-10-31T09:03:09;14.50;99.90
35043;DHT22;21230;51.170;17.024;2022-10-31T09:05:35;14.60;99.90
35043;DHT22;21230;51.170;17.024;2022-10-31T09:08:01;14.60;99.90
35043;DHT22;21230;51.170;17.024;2022-10-31T09:13:34;14.90;99.90
35043;DHT22;21230;51.170;17.024;2022-10-31T09:16:04;15.10;99.90
35043;DHT22;21230;51.170;17.024;2022-10-31T09:18:30;15.10;99.90
35043;DHT22;21230;51.170;17.024;2022-10-31T09:20:57;15.20;99.90
35043;DHT22;21230;51.170;17.024;2022-10-31T09:23:23;15.30;99.90
35043;DHT22;21230;51.170;17.024;2022-10-31T09:25:50;15.50;99.90
35043;DHT22;21230;51.170;17.024;2022-10-31T09:28:17;15.60;99.90
35043;DHT22;21230;51.170;17.024;2022-10-31T09:30:45;15.70;99.90
35043;DHT22;21230;51.170;17.024;2022-10-31T09:33:11;15.70;99.90
35043;DHT22;21230;51.170;17.024;2022-10-31T09:35:37;15.80;99.90
35043;DHT22;21230;51.170;17.024;2022-10-31T09:38:04;16.00;99.90
35043;DHT22;21230;51.170;17.024;2022-10-31T09:48:37;16.30;99.90
35043;DHT22;21230;51.170;17.024;2022-10-31T09:51:09;16.30;99.90
35043;DHT22;21230;51.170;17.024;2022-10-31T09:53:57;16.40;99.90
35043;DHT22;21230;51.170;17.024;2022-10-31T09:56:25;16.50;99.90
35043;DHT22;21230;51.170;17.024;2022-10-31T09:58:59;16.60;99.90
35043;DHT22;21230;51.170;17.024;2022-10-31T10:03:53;16.70;99.90
35043;DHT22;21230;51.170;17.024;2022-10-31T10:06:24;16.70;99.90
35043;DHT22;21230;51.170;17.024;2022-10-31T10:08:51;16.80;99.90
35043;DHT22;21230;51.170;17.024;2022-10-31T10:22:07;17.00;99.90
35043;DHT22;21230;51.170;17.024;2022-10-31T10:32:40;17.30;99.90
35043;DHT22;21230;51.170;17.024;2022-10-31T10:35:26;17.40;99.90
35043;DHT22;21230;51.170;17.024;2022-10-31T10:37:56;17.50;99.90
35043;DHT22;21230;51.170;17.024;2022-10-31T10:40:23;17.60;99.90
35043;DHT22;21230;51.170;17.024;2022-10-31T10:42:56;17.60;99.90
35043;DHT22;21230;51.170;17.024;2022-10-31T10:45:42;17.60;99.90
35043;DHT22;21230;51.170;17.024;2022-10-31T10:48:36;17.80;99.90
35043;DHT22;21230;51.170;17.024;2022-10-31T10:51:03;17.80;99.90
35043;DHT22;21230;51.170;17.024;2022-10-31T10:53:35;17.80;99.90
35043;DHT22;21230;51.170;17.024;2022-10-31T10:59:16;17.90;99.90
35043;DHT22;21230;51.170;17.024;2022-10-31T11:01:43;18.00;99.90
35043;DHT22;21230;51.170;17.024;2022-10-31T11:04:27;18.00;99.90
35043;DHT22;21230;51.170;17.024;2022-10-31T11:06:57;18.10;99.90
35043;DHT22;21230;51.170;17.024;2022-10-31T11:09:22;18.10;99.90
35043;DHT22;21230;51.170;17.024;2022-10-31T11:11:48;18.20;99.90
35043;DHT22;21230;51.170;17.024;2022-10-31T11:14:15;18.20;99.90
35043;DHT22;21230;51.170;17.024;2022-10-31T11:16:44;18.30;99.90
35043;DHT22;21230;51.170;17.024;2022-10-31T11:19:24;18.40;99.90
35043;DHT22;21230;51.170;17.024;2022-10-31T11:21:51;18.50;99.90
35043;DHT22;21230;51.170;17.024;2022-10-31T11:24:21;18.50;99.90
35043;DHT22;21230;51.170;17.024;2022-10-31T11:26:48;18.60;99.90
35043;DHT22;21230;51.170;17.024;2022-10-31T11:31:40;18.70;99.90
35043;DHT22;21230;51.170;17.024;2022-10-31T11:34:11;18.70;99.90
35043;DHT22;21230;51.170;17.024;2022-10-31T11:36:38;18.70;99.90
35043;DHT22;21230;51.170;17.024;2022-10-31T11:39:04;18.80;99.90
35043;DHT22;21230;51.170;17.024;2022-10-31T11:41:32;18.90;99.90
35043;DHT22;21230;51.170;17.024;2022-10-31T11:44:01;18.90;99.90
35043;DHT22;21230;51.170;17.024;2022-10-31T11:46:38;19.00;99.90
35043;DHT22;21230;51.170;17.024;2022-10-31T11:49:05;19.00;99.90
35043;DHT22;21230;51.170;17.024;2022-10-31T11:51:36;19.00;99.90
35043;DHT22;21230;51.170;17.024;2022-10-31T11:54:02;19.10;99.90
35043;DHT22;21230;51.170;17.024;2022-10-31T11:56:39;19.10;99.90
35043;DHT22;21230;51.170;17.024;2022-10-31T11:59:05;19.10;99.90
35043;DHT22;21230;51.170;17.024;2022-10-31T12:01:32;19.10;99.90
35043;DHT22;21230;51.170;17.024;2022-10-31T12:04:08;19.20;99.90
35043;DHT22;21230;51.170;17.024;2022-10-31T12:06:35;19.20;99.90
35043;DHT22;21230;51.170;17.024;2022-10-31T12:09:02;19.20;99.90
35043;DHT22;21230;51.170;17.024;2022-10-31T12:13:59;19.30;99.90
35043;DHT22;21230;51.170;17.024;2022-10-31T12:16:31;19.30;99.90
35043;DHT22;21230;51.170;17.024;2022-10-31T12:19:09;19.40;99.90
35043;DHT22;21230;51.170;17.024;2022-10-31T12:24:12;19.40;99.90
35043;DHT22;21230;51.170;17.024;2022-10-31T12:29:18;19.50;99.30
35043;DHT22;21230;51.170;17.024;2022-10-31T12:42:47;19.50;99.70
35043;DHT22;21230;51.170;17.024;2022-10-31T12:45:21;19.60;99.90
35043;DHT22;21230;51.170;17.024;2022-10-31T12:50:36;19.60;99.50
35043;DHT22;21230;51.170;17.024;2022-10-31T12:56:00;19.60;99.20
35043;DHT22;21230;51.170;17.024;2022-10-31T12:58:47;19.60;99.30
35043;DHT22;21230;51.170;17.024;2022-10-31T13:02:02;19.60;98.80
35043;DHT22;21230;51.170;17.024;2022-10-31T13:06:35;19.50;98.50
35043;DHT22;21230;51.170;17.024;2022-10-31T13:09:05;19.60;99.30
35043;DHT22;21230;51.170;17.024;2022-10-31T13:11:35;19.60;99.60
35043;DHT22;21230;51.170;17.024;2022-10-31T13:16:30;19.60;99.90
35043;DHT22;21230;51.170;17.024;2022-10-31T13:18:57;19.60;99.90
35043;DHT22;21230;51.170;17.024;2022-10-31T13:22:09;19.60;99.70
35043;DHT22;21230;51.170;17.024;2022-10-31T13:24:16;19.60;99.90
35043;DHT22;21230;51.170;17.024;2022-10-31T13:26:47;19.60;99.90
35043;DHT22;21230;51.170;17.024;2022-10-31T13:31:43;19.60;99.10
35043;DHT22;21230;51.170;17.024;2022-10-31T13:34:54;19.60;98.70
35043;DHT22;21230;51.170;17.024;2022-10-31T13:45:17;19.60;98.70
35043;DHT22;21230;51.170;17.024;2022-10-31T13:47:43;19.50;98.40
35043;DHT22;21230;51.170;17.024;2022-10-31T13:52:43;19.50;98.60
35043;DHT22;21230;51.170;17.024;2022-10-31T13:55:33;19.50;99.30
35043;DHT22;21230;51.170;17.024;2022-10-31T13:57:54;19.50;99.20
35043;DHT22;21230;51.170;17.024;2022-10-31T14:02:49;19.50;99.90
35043;DHT22;21230;51.170;17.024;2022-10-31T14:07:50;19.50;99.90
35043;DHT22;21230;51.170;17.024;2022-10-31T14:15:51;19.30;99.90
35043;DHT22;21230;51.170;17.024;2022-10-31T14:20:49;19.40;99.90
35043;DHT22;21230;51.170;17.024;2022-10-31T14:25:52;19.40;99.90
35043;DHT22;21230;51.170;17.024;2022-10-31T14:28:19;19.40;99.90
35043;DHT22;21230;51.170;17.024;2022-10-31T14:30:52;19.30;99.90
35043;DHT22;21230;51.170;17.024;2022-10-31T14:33:19;19.20;99.90
35043;DHT22;21230;51.170;17.024;2022-10-31T14:41:20;19.20;99.90
35043;DHT22;21230;51.170;17.024;2022-10-31T14:43:51;19.20;99.90
35043;DHT22;21230;51.170;17.024;2022-10-31T14:51:23;19.00;99.90
35043;DHT22;21230;51.170;17.024;2022-10-31T14:53:52;18.90;99.90
35043;DHT22;21230;51.170;17.024;2022-10-31T14:58:51;18.70;99.90
35043;DHT22;21230;51.170;17.024;2022-10-31T15:01:36;18.60;99.90
35043;DHT22;21230;51.170;17.024;2022-10-31T15:04:16;18.50;99.90
35043;DHT22;21230;51.170;17.024;2022-10-31T15:06:44;18.50;99.90
35043;DHT22;21230;51.170;17.024;2022-10-31T15:09:24;18.40;99.90
35043;DHT22;21230;51.170;17.024;2022-10-31T15:11:50;18.30;99.90
35043;DHT22;21230;51.170;17.024;2022-10-31T15:14:31;18.30;99.90
35043;DHT22;21230;51.170;17.024;2022-10-31T15:16:57;18.20;99.90
35043;DHT22;21230;51.170;17.024;2022-10-31T15:19:25;18.10;99.90
35043;DHT22;21230;51.170;17.024;2022-10-31T15:21:53;18.00;99.90
35043;DHT22;21230;51.170;17.024;2022-10-31T15:24:19;17.90;99.90
35043;DHT22;21230;51.170;17.024;2022-10-31T15:26:50;17.90;99.90
35043;DHT22;21230;51.170;17.024;2022-10-31T15:29:18;17.80;99.90
35043;DHT22;21230;51.170;17.024;2022-10-31T15:31:51;17.80;99.90
35043;DHT22;21230;51.170;17.024;2022-10-31T15:37:01;17.60;99.90
35043;DHT22;21230;51.170;17.024;2022-10-31T15:39:27;17.60;99.90
35043;DHT22;21230;51.170;17.024;2022-10-31T15:41:53;17.50;99.90
35043;DHT22;21230;51.170;17.024;2022-10-31T15:49:36;17.30;99.90
35043;DHT22;21230;51.170;17.024;2022-10-31T15:52:47;17.10;99.90
35043;DHT22;21230;51.170;17.024;2022-10-31T15:54:48;17.00;99.90
35043;DHT22;21230;51.170;17.024;2022-10-31T15:57:15;16.90;99.90
35043;DHT22;21230;51.170;17.024;2022-10-31T15:59:48;16.80;99.90
35043;DHT22;21230;51.170;17.024;2022-10-31T16:02:17;16.70;99.90
35043;DHT22;21230;51.170;17.024;2022-10-31T16:07:18;16.70;99.90
35043;DHT22;21230;51.170;17.024;2022-10-31T16:10:00;16.70;99.90
35043;DHT22;21230;51.170;17.024;2022-10-31T16:12:44;16.60;99.90
35043;DHT22;21230;51.170;17.024;2022-10-31T16:15:13;16.50;99.90
35043;DHT22;21230;51.170;17.024;2022-10-31T16:17:40;16.30;99.90
35043;DHT22;21230;51.170;17.024;2022-10-31T16:20:06;15.80;99.90
35043;DHT22;21230;51.170;17.024;2022-10-31T16:22:34;15.70;99.90
35043;DHT22;21230;51.170;17.024;2022-10-31T16:27:32;15.50;99.90
35043;DHT22;21230;51.170;17.024;2022-10-31T16:29:59;15.40;99.90
35043;DHT22;21230;51.170;17.024;2022-10-31T16:35:18;15.20;99.90
35043;DHT22;21230;51.170;17.024;2022-10-31T16:37:44;15.20;99.90
35043;DHT22;21230;51.170;17.024;2022-10-31T16:40:10;15.10;99.90
35043;DHT22;21230;51.170;17.024;2022-10-31T16:42:36;15.00;99.90
35043;DHT22;21230;51.170;17.024;2022-10-31T16:45:02;14.90;99.90
35043;DHT22;21230;51.170;17.024;2022-10-31T16:47:30;14.80;99.90
35043;DHT22;21230;51.170;17.024;2022-10-31T16:49:56;14.70;99.90
35043;DHT22;21230;51.170;17.024;2022-10-31T16:52:25;14.70;99.90
35043;DHT22;21230;51.170;17.024;2022-10-31T16:55:00;14.70;99.90
35043;DHT22;21230;51.170;17.024;2022-10-31T16:57:35;14.60;99.90
35043;DHT22;21230;51.170;17.024;2022-10-31T17:00:02;14.60;99.90
35043;DHT22;21230;51.170;17.024;2022-10-31T17:02:28;14.50;99.90
35043;DHT22;21230;51.170;17.024;2022-10-31T17:04:55;14.30;99.90
35043;DHT22;21230;51.170;17.024;2022-10-31T17:07:20;14.30;99.90
35043;DHT22;21230;51.170;17.024;2022-10-31T17:09:46;14.20;99.90
35043;DHT22;21230;51.170;17.024;2022-10-31T17:12:17;14.20;99.90
35043;DHT22;21230;51.170;17.024;2022-10-31T17:14:48;14.20;99.90
35043;DHT22;21230;51.170;17.024;2022-10-31T17:17:15;14.10;99.90
35043;DHT22;21230;51.170;17.024;2022-10-31T17:19:42;14.00;99.90
35043;DHT22;21230;51.170;17.024;2022-10-31T17:22:12;14.00;99.90
35043;DHT22;21230;51.170;17.024;2022-10-31T17:24:39;14.00;99.90
35043;DHT22;21230;51.170;17.024;2022-10-31T17:27:08;13.90;99.90
35043;DHT22;21230;51.170;17.024;2022-10-31T17:29:35;13.80;99.90
35043;DHT22;21230;51.170;17.024;2022-10-31T17:32:01;13.80;99.90
35043;DHT22;21230;51.170;17.024;2022-10-31T17:34:29;13.60;99.90
35043;DHT22;21230;51.170;17.024;2022-10-31T17:36:55;13.50;99.90
35043;DHT22;21230;51.170;17.024;2022-10-31T17:39:21;13.50;99.90
35043;DHT22;21230;51.170;17.024;2022-10-31T17:41:50;13.60;99.90
35043;DHT22;21230;51.170;17.024;2022-10-31T17:44:16;13.50;99.90
35043;DHT22;21230;51.170;17.024;2022-10-31T17:46:42;13.50;99.90
35043;DHT22;21230;51.170;17.024;2022-10-31T17:49:09;13.50;99.90
35043;DHT22;21230;51.170;17.024;2022-10-31T17:51:35;13.50;99.90
35043;DHT22;21230;51.170;17.024;2022-10-31T17:54:01;13.40;99.90
35043;DHT22;21230;51.170;17.024;2022-10-31T17:56:26;13.40;99.90
35043;DHT22;21230;51.170;17.024;2022-10-31T17:58:53;13.30;99.90
35043;DHT22;21230;51.170;17.024;2022-10-31T18:01:18;13.30;99.90
35043;DHT22;21230;51.170;17.024;2022-10-31T18:03:44;13.20;99.90
35043;DHT22;21230;51.170;17.024;2022-10-31T18:06:10;13.10;99.90
35043;DHT22;21230;51.170;17.024;2022-10-31T18:08:39;13.00;99.90
35043;DHT22;21230;51.170;17.024;2022-10-31T18:11:12;13.00;99.90
35043;DHT22;21230;51.170;17.024;2022-10-31T18:13:39;12.90;99.90
35043;DHT22;21230;51.170;17.024;2022-10-31T18:16:08;12.90;99.90
35043;DHT22;21230;51.170;17.024;2022-10-31T18:18:34;12.90;99.90
35043;DHT22;21230;51.170;17.024;2022-10-31T18:20:59;12.90;99.90
35043;DHT22;21230;51.170;17.024;2022-10-31T18:23:25;13.00;99.90
35043;DHT22;21230;51.170;17.024;2022-10-31T18:25:51;12.90;99.90
35043;DHT22;21230;51.170;17.024;2022-10-31T18:28:17;12.90;99.90
35043;DHT22;21230;51.170;17.024;2022-10-31T18:30:43;12.80;99.90
35043;DHT22;21230;51.170;17.024;2022-10-31T18:33:09;12.80;99.90
35043;DHT22;21230;51.170;17.024;2022-10-31T18:35:35;12.80;99.90
35043;DHT22;21230;51.170;17.024;2022-10-31T18:38:02;12.70;99.90
35043;DHT22;21230;51.170;17.024;2022-10-31T18:40:27;12.60;99.90
35043;DHT22;21230;51.170;17.024;2022-10-31T18:42:53;12.50;99.90
35043;DHT22;21230;51.170;17.024;2022-10-31T18:45:19;12.30;99.90
35043;DHT22;21230;51.170;17.024;2022-10-31T18:47:45;12.30;99.90
35043;DHT22;21230;51.170;17.024;2022-10-31T18:50:10;12.20;99.90
35043;DHT22;21230;51.170;17.024;2022-10-31T18:52:36;12.20;99.90
35043;DHT22;21230;51.170;17.024;2022-10-31T18:55:02;12.20;99.90
35043;DHT22;21230;51.170;17.024;2022-10-31T18:57:28;12.20;99.90
35043;DHT22;21230;51.170;17.024;2022-10-31T18:59:54;12.20;99.90
35043;DHT22;21230;51.170;17.024;2022-10-31T19:02:19;12.10;99.90
35043;DHT22;21230;51.170;17.024;2022-10-31T19:04:45;12.20;99.90
35043;DHT22;21230;51.170;17.024;2022-10-31T19:07:11;12.10;99.90
35043;DHT22;21230;51.170;17.024;2022-10-31T19:09:36;12.10;99.90
35043;DHT22;21230;51.170;17.024;2022-10-31T19:12:02;12.10;99.90
35043;DHT22;21230;51.170;17.024;2022-10-31T19:14:28;12.10;99.90
35043;DHT22;21230;51.170;17.024;2022-10-31T19:16:53;12.00;99.90
35043;DHT22;21230;51.170;17.024;2022-10-31T19:19:19;12.00;99.90
35043;DHT22;21230;51.170;17.024;2022-10-31T19:21:45;11.80;99.90
35043;DHT22;21230;51.170;17.024;2022-10-31T19:24:11;11.80;99.90
35043;DHT22;21230;51.170;17.024;2022-10-31T19:26:36;11.80;99.90
35043;DHT22;21230;51.170;17.024;2022-10-31T19:29:02;11.80;99.90
35043;DHT22;21230;51.170;17.024;2022-10-31T19:31:28;11.80;99.90
35043;DHT22;21230;51.170;17.024;2022-10-31T19:33:56;11.80;99.90
35043;DHT22;21230;51.170;17.024;2022-10-31T19:36:21;11.80;99.90